createdAt,value
2022-09-05T00:02:28.224Z,77.90
2022-09-05T00:05:01.338Z,78.00
2022-09-05T00:07:58.171Z,78.00
2022-09-05T00:10:23.111Z,78.10
2022-09-05T00:13:07.660Z,78.10
2022-09-05T00:15:40.133Z,78.20
2022-09-05T00:21:35.213Z,78.40
2022-09-05T00:24:29.484Z,78.40
2022-09-05T00:24:32.630Z,78.60
2022-09-05T00:27:05.661Z,78.60
2022-09-05T00:31:06.691Z,78.80
2022-09-05T00:32:42.947Z,79.00
2022-09-05T00:35:19.880Z,79.00
2022-09-05T00:37:54.728Z,78.90
2022-09-05T00:40:28.388Z,78.80
2022-09-05T00:42:59.185Z,78.90
2022-09-05T00:45:31.862Z,79.00
2022-09-05T00:48:03.140Z,78.90
2022-09-05T00:50:34.568Z,79.00
2022-09-05T00:53:07.851Z,79.10
2022-09-05T00:55:40.266Z,79.20
2022-09-05T00:58:30.445Z,79.30
2022-09-05T01:01:21.131Z,79.20
2022-09-05T01:03:56.011Z,79.40
2022-09-05T01:06:30.601Z,79.30
2022-09-05T01:09:19.330Z,79.30
2022-09-05T01:11:53.430Z,79.40
2022-09-05T01:14:26.927Z,79.60
2022-09-05T01:17:09.636Z,79.60
2022-09-05T01:19:47.127Z,79.50
2022-09-05T01:22:26.152Z,79.40
2022-09-05T01:25:07.244Z,79.40
2022-09-05T01:28:39.917Z,79.60
2022-09-05T01:30:38.661Z,79.70
2022-09-05T01:33:11.914Z,79.90
2022-09-05T01:36:03.321Z,79.90
2022-09-05T01:38:38.147Z,80.00
2022-09-05T01:41:18.736Z,79.90
2022-09-05T01:44:02.295Z,79.90
2022-09-05T01:46:35.745Z,79.90
2022-09-05T01:49:08.709Z,80.00
2022-09-05T01:51:40.941Z,79.90
2022-09-05T01:54:23.892Z,79.90
2022-09-05T01:57:01.422Z,79.90
2022-09-05T01:59:34.991Z,80.00
2022-09-05T02:02:11.424Z,80.00
2022-09-05T02:04:52.644Z,80.00
2022-09-05T02:07:31.049Z,79.90
2022-09-05T02:10:13.271Z,79.90
2022-09-05T02:12:43.274Z,80.00
2022-09-05T02:15:27.792Z,79.90
2022-09-05T02:17:58.181Z,79.90
2022-09-05T02:20:28.489Z,79.90
2022-09-05T02:23:04.447Z,80.00
2022-09-05T02:26:01.592Z,80.20
2022-09-05T02:28:34.004Z,80.10
2022-09-05T02:31:20.060Z,80.10
2022-09-05T02:33:57.562Z,80.30
2022-09-05T02:36:32.941Z,80.20
2022-09-05T02:45:01.440Z,80.10
2022-09-05T02:45:21.235Z,80.00
2022-09-05T02:45:24.240Z,79.90
2022-09-05T02:47:54.814Z,79.70
2022-09-05T02:52:08.953Z,79.80
2022-09-05T02:57:37.435Z,79.80
2022-09-05T02:58:05.846Z,79.80
2022-09-05T02:59:09.919Z,79.80
2022-09-05T03:01:52.931Z,79.80
2022-09-05T03:04:28.078Z,79.80
2022-09-05T03:07:02.491Z,79.80
2022-09-05T03:09:36.773Z,79.80
2022-09-05T03:12:33.920Z,79.90
2022-09-05T03:15:23.058Z,79.80
2022-09-05T03:18:20.139Z,79.80
2022-09-05T03:21:09.659Z,79.80
2022-09-05T03:23:52.635Z,79.70
2022-09-05T03:26:30.406Z,79.90
2022-09-05T03:29:13.180Z,79.90
2022-09-05T03:31:56.869Z,80.00
2022-09-05T03:34:37.073Z,79.90
2022-09-05T03:37:23.409Z,79.90
2022-09-05T03:40:15.300Z,79.90
2022-09-05T03:42:56.668Z,79.80
2022-09-05T03:45:38.987Z,79.90
2022-09-05T03:48:28.809Z,79.90
2022-09-05T03:56:20.292Z,79.90
2022-09-05T03:57:15.964Z,79.80
2022-09-05T03:57:33.807Z,79.80
2022-09-05T04:00:09.368Z,79.80
2022-09-05T04:07:51.827Z,79.60
2022-09-05T04:08:15.981Z,79.70
2022-09-05T04:08:32.385Z,79.80
2022-09-05T04:11:06.395Z,80.00
2022-09-05T04:13:37.069Z,80.00
2022-09-05T04:16:10.124Z,80.00
2022-09-05T04:18:40.311Z,80.20
2022-09-05T04:21:11.409Z,80.20
2022-09-05T04:23:46.018Z,80.20
2022-09-05T04:26:21.446Z,80.20
2022-09-05T04:28:55.878Z,80.10
2022-09-05T04:31:31.917Z,80.20
2022-09-05T04:34:10.095Z,80.10
2022-09-05T04:36:39.339Z,80.20
2022-09-05T04:39:09.265Z,80.30
2022-09-05T04:41:41.060Z,80.40
2022-09-05T04:44:11.575Z,80.50
2022-09-05T04:46:48.815Z,80.60
2022-09-05T04:49:19.019Z,80.60
2022-09-05T04:52:03.238Z,80.60
2022-09-05T04:54:36.142Z,80.60
2022-09-05T04:57:14.415Z,80.60
2022-09-05T05:05:50.853Z,80.60
2022-09-05T05:06:08.724Z,80.50
2022-09-05T05:06:10.314Z,80.60
2022-09-05T05:08:31.703Z,80.60
2022-09-05T05:16:25.171Z,80.70
2022-09-05T05:18:12.504Z,80.70
2022-09-05T05:18:14.077Z,80.60
2022-09-05T05:19:48.897Z,80.50
2022-09-05T05:22:34.244Z,80.40
2022-09-05T05:25:02.526Z,80.40
2022-09-05T05:27:34.564Z,80.20
2022-09-05T05:30:04.621Z,79.90
2022-09-05T05:32:45.586Z,79.80
2022-09-05T05:35:17.019Z,79.70
2022-09-05T05:37:46.453Z,79.10
2022-09-05T05:40:20.293Z,78.60
2022-09-05T05:42:48.395Z,78.00
2022-09-05T05:45:18.257Z,77.00
2022-09-05T05:47:47.535Z,75.60
2022-09-05T05:50:27.263Z,73.70
2022-09-05T05:53:06.699Z,72.40
2022-09-05T05:55:54.956Z,71.60
2022-09-05T05:58:32.743Z,69.80
2022-09-05T06:01:37.259Z,68.30
2022-09-05T06:04:21.514Z,67.50
2022-09-05T06:06:58.035Z,67.40
2022-09-05T06:14:50.972Z,66.50
2022-09-05T06:15:00.161Z,65.70
2022-09-05T06:15:41.442Z,64.80
2022-09-05T06:18:28.007Z,63.90
2022-09-05T06:22:07.419Z,63.70
2022-09-05T06:24:16.810Z,63.80
2022-09-05T06:27:02.404Z,63.20
2022-09-05T06:29:38.652Z,62.50
2022-09-05T06:32:22.029Z,61.30
2022-09-05T06:35:08.758Z,60.40
2022-09-05T06:37:42.512Z,59.30
2022-09-05T06:40:14.081Z,58.00
2022-09-05T06:42:53.897Z,56.50
2022-09-05T06:45:31.030Z,54.70
2022-09-05T06:48:04.047Z,53.40
2022-09-05T06:51:07.342Z,52.20
2022-09-05T06:53:44.604Z,51.30
2022-09-05T06:56:26.050Z,50.70
2022-09-05T06:59:12.138Z,49.90
2022-09-05T07:02:00.162Z,48.40
2022-09-05T07:05:24.003Z,47.60
2022-09-05T07:07:24.153Z,46.90
2022-09-05T07:09:59.055Z,46.90
2022-09-05T07:12:30.434Z,45.50
2022-09-05T07:15:09.613Z,45.10
2022-09-05T07:18:08.636Z,44.30
2022-09-05T07:21:17.411Z,43.70
2022-09-05T07:24:06.701Z,43.90
2022-09-05T07:26:49.664Z,43.40
2022-09-05T07:29:11.427Z,42.70
2022-09-05T07:31:42.902Z,42.00
2022-09-05T07:34:21.137Z,40.80
2022-09-05T07:37:13.903Z,39.80
2022-09-05T07:39:41.369Z,38.70
2022-09-05T07:42:13.322Z,38.50
2022-09-05T07:44:44.081Z,37.90
2022-09-05T07:47:17.033Z,37.00
2022-09-05T07:50:12.583Z,37.00
2022-09-05T07:56:49.588Z,39.00
2022-09-05T07:57:01.959Z,37.90
2022-09-05T07:58:17.195Z,41.30
2022-09-05T08:00:45.996Z,42.20
2022-09-05T08:03:14.816Z,42.20
2022-09-05T08:05:45.371Z,42.70
2022-09-05T08:08:15.109Z,42.20
2022-09-05T08:11:23.791Z,41.70
2022-09-05T08:13:48.521Z,41.60
2022-09-05T08:16:17.886Z,40.30
2022-09-05T08:18:50.382Z,37.70
2022-09-05T08:21:27.336Z,36.80
2022-09-05T08:24:05.460Z,37.90
2022-09-05T08:26:46.911Z,38.80
2022-09-05T08:29:22.851Z,37.80
2022-09-05T08:31:53.185Z,37.90
2022-09-05T08:34:36.795Z,37.30
2022-09-05T08:37:15.178Z,37.90
2022-09-05T08:39:51.104Z,38.30
2022-09-05T08:42:49.404Z,37.20
2022-09-05T08:46:43.402Z,37.00
2022-09-05T08:48:35.176Z,36.90
2022-09-05T08:51:09.779Z,36.00
2022-09-05T08:53:48.934Z,34.80
2022-09-05T08:56:20.599Z,34.50
2022-09-05T08:59:31.484Z,34.30
2022-09-05T09:02:45.396Z,34.20
2022-09-05T09:05:01.465Z,34.00
2022-09-05T09:07:50.797Z,33.10
2022-09-05T09:10:34.886Z,32.10
2022-09-05T09:13:07.657Z,31.20
2022-09-05T09:15:38.287Z,30.60
2022-09-05T09:18:12.319Z,30.20
2022-09-05T09:20:45.857Z,29.60
2022-09-05T09:23:38.964Z,28.70
2022-09-05T09:26:13.404Z,28.70
2022-09-05T09:28:48.000Z,29.00
2022-09-05T09:31:24.102Z,29.80
2022-09-05T09:33:57.389Z,30.40
2022-09-05T09:36:51.818Z,30.60
2022-09-05T09:39:37.430Z,30.40
2022-09-05T09:42:32.238Z,30.30
2022-09-05T09:45:27.471Z,30.50
2022-09-05T09:48:12.239Z,30.50
2022-09-05T09:50:58.485Z,30.60
2022-09-05T09:53:37.441Z,30.50
2022-09-05T09:56:23.372Z,31.40
2022-09-05T09:59:06.158Z,31.90
2022-09-05T10:01:39.144Z,32.10
2022-09-05T10:10:37.856Z,32.70
2022-09-05T10:10:45.166Z,31.50
2022-09-05T10:10:59.633Z,31.50
2022-09-05T10:13:29.848Z,31.50
2022-09-05T10:16:15.574Z,30.50
2022-09-05T10:18:55.242Z,29.70
2022-09-05T10:21:29.111Z,29.40
2022-09-05T10:24:18.038Z,28.70
2022-09-05T10:26:56.599Z,28.70
2022-09-05T10:29:38.686Z,29.20
2022-09-05T10:35:10.063Z,29.20
2022-09-05T10:35:14.792Z,29.10
2022-09-05T10:38:02.318Z,28.50
2022-09-05T10:41:19.871Z,27.80
2022-09-05T10:43:29.090Z,27.10
2022-09-05T10:46:02.436Z,26.80
2022-09-05T10:48:37.303Z,26.60
2022-09-05T10:51:27.236Z,26.30
2022-09-05T10:54:02.847Z,26.60
2022-09-05T10:56:33.088Z,27.30
2022-09-05T11:01:40.352Z,27.80
2022-09-05T11:02:24.546Z,27.60
2022-09-05T11:04:50.773Z,26.60
2022-09-05T11:07:27.899Z,25.90
2022-09-05T11:10:05.615Z,26.10
2022-09-05T11:12:48.007Z,26.50
2022-09-05T11:15:29.469Z,26.90
2022-09-05T11:18:01.706Z,26.90
2022-09-05T11:20:42.344Z,27.00
2022-09-05T11:23:15.619Z,26.90
2022-09-05T11:25:47.009Z,26.90
2022-09-05T11:28:17.711Z,27.60
2022-09-05T11:30:49.768Z,28.00
2022-09-05T11:39:26.278Z,28.30
2022-09-05T11:39:50.488Z,29.60
2022-09-05T11:40:07.146Z,30.60
2022-09-05T11:42:24.862Z,31.50
2022-09-05T11:45:15.358Z,31.80
2022-09-05T11:48:02.010Z,32.90
2022-09-05T11:50:47.671Z,33.00
2022-09-05T11:53:42.730Z,32.80
2022-09-05T11:56:28.573Z,32.90
2022-09-05T11:59:33.060Z,33.50
2022-09-05T12:02:24.061Z,33.30
2022-09-05T12:05:47.783Z,33.20
2022-09-05T12:07:55.720Z,32.60
2022-09-05T12:10:46.411Z,32.70
2022-09-05T12:13:26.316Z,33.00
2022-09-05T12:16:08.083Z,33.00
2022-09-05T12:18:44.574Z,32.50
2022-09-05T12:21:24.476Z,32.20
2022-09-05T12:25:15.481Z,30.80
2022-09-05T12:27:42.788Z,29.80
2022-09-05T12:29:38.808Z,28.60
2022-09-05T12:33:58.130Z,27.00
2022-09-05T12:36:08.896Z,27.00
2022-09-05T12:40:53.348Z,27.60
2022-09-05T12:41:37.321Z,27.50
2022-09-05T12:44:38.793Z,28.00
2022-09-05T12:46:37.035Z,28.50
2022-09-05T12:49:10.261Z,28.80
2022-09-05T12:51:45.086Z,28.00
2022-09-05T12:54:32.739Z,27.40
2022-09-05T13:00:29.032Z,26.70
2022-09-05T13:03:02.905Z,25.90
2022-09-05T13:03:13.146Z,25.20
2022-09-05T13:05:46.187Z,24.70
2022-09-05T13:08:21.489Z,25.20
2022-09-05T13:14:52.660Z,25.10
2022-09-05T13:14:58.746Z,25.20
2022-09-05T13:16:33.207Z,24.70
2022-09-05T13:19:07.705Z,24.00
2022-09-05T13:21:40.459Z,23.30
2022-09-05T13:24:12.204Z,23.60
2022-09-05T13:26:43.144Z,23.90
2022-09-05T13:29:13.890Z,23.70
2022-09-05T13:37:53.767Z,23.40
2022-09-05T13:38:03.935Z,24.30
2022-09-05T13:38:20.333Z,25.10
2022-09-05T13:40:42.661Z,26.20
2022-09-05T13:43:11.678Z,26.40
2022-09-05T13:45:49.106Z,26.40
2022-09-05T13:48:27.808Z,27.20
2022-09-05T13:51:00.061Z,27.40
2022-09-05T13:53:36.848Z,28.00
2022-09-05T13:56:21.328Z,28.20
2022-09-05T13:58:56.531Z,28.60
2022-09-05T14:01:44.194Z,28.70
2022-09-05T14:07:50.097Z,29.20
2022-09-05T14:10:38.642Z,29.90
2022-09-05T14:13:11.569Z,30.00
2022-09-05T14:15:42.750Z,30.50
2022-09-05T14:18:21.005Z,30.60
2022-09-05T14:21:10.639Z,31.10
2022-09-05T14:23:43.261Z,31.10
2022-09-05T14:26:15.064Z,30.90
2022-09-05T14:28:46.952Z,31.00
2022-09-05T14:34:04.137Z,30.80
2022-09-05T14:37:39.200Z,30.40
2022-09-05T14:37:54.322Z,30.10
2022-09-05T14:40:29.654Z,29.90
2022-09-05T14:43:13.953Z,30.10
2022-09-05T14:46:00.458Z,30.30
2022-09-05T14:48:46.519Z,29.90
2022-09-05T14:51:43.105Z,30.00
2022-09-05T14:54:12.819Z,29.70
2022-09-05T14:57:23.653Z,30.30
2022-09-05T15:02:41.212Z,29.70
2022-09-05T15:02:57.272Z,29.80
2022-09-05T15:05:18.208Z,30.60
2022-09-05T15:07:48.262Z,31.20
2022-09-05T15:12:20.003Z,31.70
2022-09-05T15:13:17.235Z,32.60
2022-09-05T15:16:02.060Z,33.20
2022-09-05T15:18:32.877Z,33.50
2022-09-05T15:21:15.768Z,33.80
2022-09-05T15:24:01.457Z,33.70
2022-09-05T15:26:31.223Z,34.00
2022-09-05T15:29:17.277Z,34.30
2022-09-05T15:31:45.519Z,34.00
2022-09-05T15:34:21.791Z,34.10
2022-09-05T15:36:49.671Z,33.90
2022-09-05T15:39:23.223Z,34.10
2022-09-05T15:41:51.605Z,34.20
2022-09-05T15:44:22.147Z,33.50
2022-09-05T15:46:51.597Z,33.70
2022-09-05T15:49:32.162Z,33.60
2022-09-05T15:52:01.391Z,33.60
2022-09-05T15:54:37.519Z,33.50
2022-09-05T15:57:08.967Z,33.70
2022-09-05T15:59:49.076Z,33.60
2022-09-05T16:02:20.073Z,33.00
2022-09-05T16:08:55.498Z,33.50
2022-09-05T16:10:35.221Z,33.70
2022-09-05T16:11:04.442Z,34.00
2022-09-05T16:13:48.409Z,34.40
2022-09-05T16:21:13.014Z,34.30
2022-09-05T16:23:15.047Z,34.40
2022-09-05T16:23:27.785Z,34.90
2022-09-05T16:24:58.645Z,34.50
2022-09-05T16:27:43.946Z,34.60
2022-09-05T16:30:15.834Z,34.30
2022-09-05T16:32:50.990Z,33.80
2022-09-05T16:35:25.212Z,33.60
2022-09-05T16:37:57.173Z,34.20
2022-09-05T16:40:27.322Z,34.80
2022-09-05T16:42:59.413Z,34.40
2022-09-05T16:45:34.419Z,34.40
2022-09-05T16:48:10.827Z,34.60
2022-09-05T16:50:50.115Z,34.60
2022-09-05T16:53:30.797Z,35.00
2022-09-05T16:56:03.756Z,35.80
2022-09-05T16:58:34.419Z,36.40
2022-09-05T17:01:20.992Z,37.10
2022-09-05T17:03:54.385Z,37.50
2022-09-05T17:06:26.244Z,38.00
2022-09-05T17:09:00.830Z,38.50
2022-09-05T17:11:44.470Z,38.80
2022-09-05T17:14:33.752Z,39.10
2022-09-05T17:17:20.063Z,39.20
2022-09-05T17:20:07.057Z,39.50
2022-09-05T17:27:14.806Z,39.40
2022-09-05T17:29:27.749Z,39.30
2022-09-05T17:29:29.471Z,40.20
2022-09-05T17:34:42.743Z,40.90
2022-09-05T17:37:19.618Z,41.10
2022-09-05T17:39:51.844Z,41.30
2022-09-05T17:42:28.341Z,41.50
2022-09-05T17:45:03.495Z,41.90
2022-09-05T17:47:36.297Z,42.30
2022-09-05T17:50:13.233Z,42.90
2022-09-05T17:53:25.666Z,43.40
2022-09-05T17:56:12.289Z,43.80
2022-09-05T17:59:00.260Z,44.90
2022-09-05T18:01:32.551Z,46.10
2022-09-05T18:04:17.855Z,46.10
2022-09-05T18:06:59.413Z,46.60
2022-09-05T18:09:59.072Z,47.40
2022-09-05T18:13:12.630Z,47.70
2022-09-05T18:15:51.207Z,48.00
2022-09-05T18:19:00.958Z,48.40
2022-09-05T18:21:24.847Z,49.20
2022-09-05T18:23:59.913Z,49.30
2022-09-05T18:26:29.272Z,49.90
2022-09-05T18:29:01.189Z,50.60
2022-09-05T18:31:48.983Z,51.80
2022-09-05T18:34:38.797Z,52.70
2022-09-05T18:37:23.116Z,53.20
2022-09-05T18:40:06.814Z,54.00
2022-09-05T18:42:37.947Z,54.60
2022-09-05T18:45:15.286Z,54.70
2022-09-05T18:47:51.014Z,54.50
2022-09-05T18:50:26.759Z,54.50
2022-09-05T18:53:10.629Z,54.40
2022-09-05T18:56:13.599Z,54.90
2022-09-05T18:58:52.013Z,55.60
2022-09-05T19:01:23.129Z,56.20
2022-09-05T19:03:58.893Z,56.60
2022-09-05T19:06:36.021Z,57.20
2022-09-05T19:09:07.843Z,57.90
2022-09-05T19:11:42.287Z,58.40
2022-09-05T19:14:30.283Z,59.30
2022-09-05T19:17:03.419Z,59.70
2022-09-05T19:19:51.093Z,60.00
2022-09-05T19:23:10.722Z,60.70
2022-09-05T19:25:34.325Z,61.20
2022-09-05T19:36:51.696Z,62.10
2022-09-05T19:36:52.190Z,61.50
2022-09-05T19:37:05.471Z,62.40
2022-09-05T19:37:05.765Z,62.10
2022-09-05T19:43:07.422Z,62.60
2022-09-05T19:47:28.584Z,63.10
2022-09-05T19:47:34.473Z,63.30
2022-09-05T19:48:16.826Z,63.50
2022-09-05T19:50:47.372Z,63.70
2022-09-05T19:53:16.585Z,64.00
2022-09-05T19:55:45.864Z,64.20
2022-09-05T19:58:20.110Z,64.60
2022-09-05T20:01:02.194Z,64.90
2022-09-05T20:03:39.123Z,65.30
2022-09-05T20:06:29.331Z,65.40
2022-09-05T20:09:15.180Z,65.50
2022-09-05T20:11:46.884Z,65.70
2022-09-05T20:14:19.359Z,65.90
2022-09-05T20:16:49.958Z,66.10
2022-09-05T20:19:28.509Z,66.10
2022-09-05T20:21:58.481Z,66.40
2022-09-05T20:24:27.885Z,66.50
2022-09-05T20:26:56.302Z,66.50
2022-09-05T20:29:40.160Z,66.70
2022-09-05T20:32:38.694Z,66.80
2022-09-05T20:41:57.491Z,67.00
2022-09-05T20:43:10.482Z,67.00
2022-09-05T20:43:18.012Z,67.10
2022-09-05T20:43:52.519Z,67.10
2022-09-05T20:51:09.274Z,67.20
2022-09-05T20:54:05.809Z,67.20
2022-09-05T20:54:25.246Z,67.60
2022-09-05T20:54:58.691Z,67.70
2022-09-05T20:57:46.713Z,67.80
2022-09-05T21:00:15.667Z,67.90
2022-09-05T21:02:54.670Z,67.90
2022-09-05T21:05:27.373Z,67.90
2022-09-05T21:08:10.215Z,68.00
2022-09-05T21:10:56.063Z,67.80
2022-09-05T21:13:26.207Z,68.10
2022-09-05T21:15:54.775Z,68.10
2022-09-05T21:18:24.798Z,68.30
2022-09-05T21:21:27.806Z,68.30
2022-09-05T21:24:17.269Z,68.40
2022-09-05T21:26:47.158Z,68.30
2022-09-05T21:29:16.588Z,68.40
2022-09-05T21:31:45.689Z,68.40
2022-09-05T21:34:22.153Z,68.30
2022-09-05T21:37:03.925Z,68.00
2022-09-05T21:39:36.619Z,68.00
2022-09-05T21:42:19.947Z,68.00
2022-09-05T21:47:45.067Z,68.10
2022-09-05T21:47:53.730Z,68.30
2022-09-05T21:50:31.408Z,68.40
2022-09-05T21:53:46.926Z,68.40
2022-09-05T21:59:16.895Z,68.20
2022-09-05T21:59:21.156Z,68.30
2022-09-05T22:01:51.619Z,68.00
2022-09-05T22:04:22.216Z,68.10
2022-09-05T22:06:50.867Z,68.10
2022-09-05T22:09:20.609Z,68.00
2022-09-05T22:11:50.641Z,67.90
2022-09-05T22:14:18.847Z,67.90
2022-09-05T22:16:47.611Z,68.00
2022-09-05T22:19:17.787Z,68.30
2022-09-05T22:21:45.877Z,68.50
2022-09-05T22:24:14.222Z,68.50
2022-09-05T22:27:11.425Z,68.30
2022-09-05T22:29:34.480Z,68.50
2022-09-05T22:32:02.838Z,68.60
2022-09-05T22:34:31.046Z,68.60
2022-09-05T22:36:59.011Z,68.60
2022-09-05T22:39:37.810Z,68.60
2022-09-05T22:42:10.658Z,68.80
2022-09-05T22:44:39.712Z,68.80
2022-09-05T22:47:08.051Z,69.00
2022-09-05T22:49:36.419Z,68.90
2022-09-05T22:52:04.971Z,68.90
2022-09-05T22:54:33.074Z,68.80
2022-09-05T22:57:00.956Z,68.90
2022-09-05T22:59:30.219Z,69.00
2022-09-05T23:01:58.333Z,69.10
2022-09-05T23:04:26.445Z,69.30
2022-09-05T23:06:54.483Z,69.50
2022-09-05T23:09:22.441Z,69.50
2022-09-05T23:11:50.302Z,69.40
2022-09-05T23:14:18.180Z,69.20
2022-09-05T23:16:47.465Z,69.10
2022-09-05T23:19:15.469Z,69.00
2022-09-05T23:21:43.340Z,68.90
2022-09-05T23:24:11.248Z,68.80
2022-09-05T23:26:39.096Z,68.70
2022-09-05T23:29:06.988Z,68.70
2022-09-05T23:31:34.990Z,68.60
2022-09-05T23:34:04.299Z,68.70
2022-09-05T23:36:32.164Z,68.80
2022-09-05T23:39:00.113Z,68.90
2022-09-05T23:41:28.151Z,68.90
2022-09-05T23:43:56.003Z,69.10
2022-09-05T23:46:24.322Z,69.20
2022-09-05T23:48:52.339Z,69.10
2022-09-05T23:51:21.697Z,69.10
2022-09-05T23:53:49.564Z,69.30
2022-09-05T23:56:17.474Z,69.30
2022-09-05T23:58:45.647Z,69.40
